createdAt,value
2019-04-03T00:00:38.090Z,13.40
2019-04-03T00:03:10.236Z,13.30
2019-04-03T00:05:42.092Z,13.30
2019-04-03T00:08:14.142Z,13.00
2019-04-03T00:10:46.081Z,12.70
2019-04-03T00:13:18.158Z,12.80
2019-04-03T00:15:49.921Z,13.30
2019-04-03T00:18:22.178Z,13.50
2019-04-03T00:20:53.946Z,13.40
2019-04-03T00:23:25.778Z,13.20
2019-04-03T00:25:57.928Z,13.00
2019-04-03T00:28:29.758Z,13.20
2019-04-03T00:31:01.576Z,12.60
2019-04-03T00:33:33.706Z,12.60
2019-04-03T00:36:05.801Z,12.90
2019-04-03T00:38:38.124Z,12.70
2019-04-03T00:41:09.889Z,12.80
2019-04-03T00:43:41.739Z,12.50
2019-04-03T00:46:13.521Z,12.20
2019-04-03T00:48:45.729Z,12.10
2019-04-03T00:51:17.506Z,12.20
2019-04-03T00:53:49.581Z,12.50
2019-04-03T00:56:21.340Z,12.70
2019-04-03T00:58:55.007Z,12.60
2019-04-03T01:01:27.047Z,12.70
2019-04-03T01:03:59.489Z,12.50
2019-04-03T01:06:31.353Z,12.80
2019-04-03T01:09:03.184Z,12.70
2019-04-03T01:11:35.938Z,13.00
2019-04-03T01:14:07.791Z,13.00
2019-04-03T01:16:39.639Z,13.30
2019-04-03T01:19:11.798Z,13.20
2019-04-03T01:21:43.676Z,13.20
2019-04-03T01:24:15.611Z,13.10
2019-04-03T01:26:47.468Z,13.10
2019-04-03T01:29:19.422Z,13.10
2019-04-03T01:31:51.384Z,12.80
2019-04-03T01:34:23.380Z,13.00
2019-04-03T01:36:55.123Z,12.80
2019-04-03T01:39:27.175Z,12.80
2019-04-03T01:41:58.973Z,12.70
2019-04-03T01:44:31.115Z,12.60
2019-04-03T01:47:02.845Z,12.60
2019-04-03T01:49:35.007Z,12.50
2019-04-03T01:52:06.789Z,12.60
2019-04-03T01:54:38.860Z,12.20
2019-04-03T01:57:10.649Z,12.20
2019-04-03T01:59:42.685Z,11.90
2019-04-03T02:02:15.686Z,11.90
2019-04-03T02:04:48.043Z,12.40
2019-04-03T02:07:19.860Z,12.30
2019-04-03T02:09:51.983Z,12.50
2019-04-03T02:12:23.773Z,12.60
2019-04-03T02:14:55.892Z,12.60
2019-04-03T02:17:27.660Z,12.90
2019-04-03T02:19:59.862Z,12.80
2019-04-03T02:22:31.603Z,12.60
2019-04-03T02:25:03.543Z,13.00
2019-04-03T02:27:35.351Z,13.20
2019-04-03T02:30:12.297Z,13.10
2019-04-03T02:32:43.042Z,12.70
2019-04-03T02:35:15.393Z,12.80
2019-04-03T02:37:49.768Z,12.80
2019-04-03T02:40:21.032Z,12.70
2019-04-03T02:42:52.889Z,12.70
2019-04-03T02:45:25.085Z,12.50
2019-04-03T02:47:56.806Z,12.90
2019-04-03T02:50:30.000Z,13.30
2019-04-03T02:53:04.949Z,13.30
2019-04-03T02:55:39.813Z,13.10
2019-04-03T02:58:10.677Z,12.90
2019-04-03T03:00:42.720Z,13.00
2019-04-03T03:03:17.217Z,12.80
2019-04-03T03:05:48.281Z,12.30
2019-04-03T03:08:23.043Z,12.20
2019-04-03T03:10:55.431Z,12.50
2019-04-03T03:13:27.366Z,12.30
2019-04-03T03:15:59.717Z,12.30
2019-04-03T03:18:31.777Z,12.40
2019-04-03T03:21:06.346Z,12.70
2019-04-03T03:23:39.959Z,12.60
2019-04-03T03:26:12.075Z,12.60
2019-04-03T03:28:46.850Z,13.30
2019-04-03T03:31:19.426Z,12.60
2019-04-03T03:33:52.429Z,12.70
2019-04-03T03:36:26.494Z,12.80
2019-04-03T03:39:00.927Z,12.80
2019-04-03T03:41:36.085Z,13.20
2019-04-03T03:44:10.642Z,13.20
2019-04-03T03:46:43.473Z,13.20
2019-04-03T03:49:17.973Z,13.00
2019-04-03T03:51:51.292Z,13.40
2019-04-03T03:54:25.107Z,13.70
2019-04-03T03:56:57.501Z,13.40
2019-04-03T03:59:30.482Z,13.10
2019-04-03T04:02:05.289Z,13.30
2019-04-03T04:04:36.360Z,13.20
2019-04-03T04:07:08.599Z,13.20
2019-04-03T04:09:40.589Z,13.60
2019-04-03T04:12:12.443Z,13.50
2019-04-03T04:14:44.265Z,13.40
2019-04-03T04:17:18.460Z,13.20
2019-04-03T04:19:50.599Z,13.40
2019-04-03T04:22:26.786Z,13.40
2019-04-03T04:24:59.914Z,13.50
2019-04-03T04:27:33.834Z,13.50
2019-04-03T04:30:06.923Z,13.60
2019-04-03T04:32:38.963Z,13.80
2019-04-03T04:35:11.254Z,14.10
2019-04-03T04:37:43.624Z,13.80
2019-04-03T04:40:15.653Z,13.90
2019-04-03T04:42:48.586Z,13.60
2019-04-03T04:45:20.317Z,13.70
2019-04-03T04:47:52.317Z,13.20
2019-04-03T04:50:25.370Z,13.10
2019-04-03T04:52:58.704Z,13.50
2019-04-03T04:55:33.044Z,13.70
2019-04-03T04:58:05.345Z,13.70
2019-04-03T05:00:37.209Z,14.30
2019-04-03T05:03:09.143Z,14.40
2019-04-03T05:05:40.897Z,13.70
2019-04-03T05:08:13.344Z,13.50
2019-04-03T05:10:45.164Z,13.60
2019-04-03T05:13:17.048Z,13.50
2019-04-03T05:15:48.952Z,13.90
2019-04-03T05:18:21.071Z,14.40
2019-04-03T05:20:53.077Z,14.70
2019-04-03T05:23:25.603Z,14.40
2019-04-03T05:26:01.006Z,14.30
2019-04-03T05:28:33.967Z,14.30
2019-04-03T05:31:07.642Z,14.40
2019-04-03T05:33:41.146Z,14.60
2019-04-03T05:36:12.622Z,14.70
2019-04-03T05:38:45.115Z,14.70
2019-04-03T05:41:17.277Z,14.50
2019-04-03T05:43:49.276Z,14.30
2019-04-03T05:46:21.046Z,14.30
2019-04-03T05:48:53.312Z,14.20
2019-04-03T05:51:25.111Z,14.30
2019-04-03T05:53:57.570Z,14.10
2019-04-03T05:56:29.566Z,14.10
2019-04-03T05:59:03.026Z,14.30
2019-04-03T06:01:35.075Z,14.40
2019-04-03T06:04:07.988Z,14.60
2019-04-03T06:06:40.743Z,14.50
2019-04-03T06:09:13.051Z,14.90
2019-04-03T06:11:44.947Z,14.80
2019-04-03T06:14:19.052Z,14.20
2019-04-03T06:16:50.922Z,14.00
2019-04-03T06:19:22.753Z,13.70
2019-04-03T06:21:54.617Z,13.90
2019-04-03T06:24:26.828Z,14.10
2019-04-03T06:26:58.674Z,13.70
2019-04-03T06:29:30.524Z,13.40
2019-04-03T06:32:05.179Z,13.70
2019-04-03T06:34:38.396Z,13.40
2019-04-03T06:37:09.582Z,13.20
2019-04-03T06:39:41.940Z,13.00
2019-04-03T06:42:14.082Z,12.70
2019-04-03T06:44:46.581Z,13.10
2019-04-03T06:47:18.368Z,13.30
2019-04-03T06:49:50.198Z,13.20
2019-04-03T06:52:22.181Z,13.10
2019-04-03T06:54:54.548Z,13.20
2019-04-03T06:57:26.488Z,12.70
2019-04-03T06:59:58.488Z,12.60
2019-04-03T07:02:32.051Z,13.40
2019-04-03T07:05:03.956Z,13.50
2019-04-03T07:07:35.791Z,13.70
2019-04-03T07:10:09.150Z,13.30
2019-04-03T07:12:41.610Z,13.50
2019-04-03T07:15:14.187Z,13.50
2019-04-03T07:17:46.296Z,13.30
2019-04-03T07:20:20.022Z,13.70
2019-04-03T07:22:51.952Z,14.00
2019-04-03T07:25:24.638Z,13.70
2019-04-03T07:27:56.474Z,14.00
2019-04-03T07:30:28.417Z,14.30
2019-04-03T07:33:00.151Z,13.50
2019-04-03T07:35:32.221Z,13.40
2019-04-03T07:38:03.979Z,12.90
2019-04-03T07:40:36.516Z,13.40
2019-04-03T07:43:08.440Z,13.30
2019-04-03T07:45:40.483Z,13.20
2019-04-03T07:48:12.240Z,13.00
2019-04-03T07:50:44.191Z,12.90
2019-04-03T07:53:16.058Z,12.40
2019-04-03T07:55:48.228Z,12.10
2019-04-03T07:58:20.234Z,12.50
2019-04-03T08:00:52.525Z,12.70
2019-04-03T08:03:24.425Z,12.80
2019-04-03T08:05:56.848Z,13.00
2019-04-03T08:08:29.175Z,12.80
2019-04-03T08:11:02.585Z,12.60
2019-04-03T08:13:37.616Z,12.40
2019-04-03T08:16:08.282Z,12.40
2019-04-03T08:18:41.660Z,12.80
2019-04-03T08:21:13.674Z,12.50
2019-04-03T08:23:45.493Z,12.70
2019-04-03T08:26:19.175Z,12.60
2019-04-03T08:28:51.446Z,12.50
2019-04-03T08:31:23.602Z,12.80
2019-04-03T08:33:57.124Z,12.90
2019-04-03T08:36:29.561Z,13.10
2019-04-03T08:39:01.688Z,12.90
2019-04-03T08:41:37.387Z,12.80
2019-04-03T08:44:09.324Z,13.00
2019-04-03T08:46:43.877Z,13.20
2019-04-03T08:49:15.348Z,13.10
2019-04-03T08:51:47.685Z,12.60
2019-04-03T08:54:19.553Z,12.70
2019-04-03T08:56:51.862Z,12.90
2019-04-03T08:59:24.033Z,12.80
2019-04-03T09:01:56.207Z,13.20
2019-04-03T09:04:28.291Z,13.00
2019-04-03T09:07:00.814Z,12.30
2019-04-03T09:09:34.897Z,13.10
2019-04-03T09:12:07.582Z,12.80
2019-04-03T09:14:39.803Z,13.50
2019-04-03T09:17:11.849Z,12.70
2019-04-03T09:19:43.772Z,12.80
2019-04-03T09:22:15.790Z,13.10
2019-04-03T09:24:47.802Z,13.20
2019-04-03T09:27:20.211Z,13.30
2019-04-03T09:29:52.840Z,13.00
2019-04-03T09:32:25.063Z,12.40
2019-04-03T09:34:56.809Z,12.40
2019-04-03T09:37:28.799Z,12.60
2019-04-03T09:40:00.662Z,12.70
2019-04-03T09:42:33.031Z,12.40
2019-04-03T09:45:06.156Z,12.30
2019-04-03T09:47:38.346Z,12.50
2019-04-03T09:50:11.934Z,12.60
2019-04-03T09:52:49.083Z,11.90
2019-04-03T09:55:18.028Z,12.00
2019-04-03T09:57:52.307Z,12.20
2019-04-03T10:00:23.970Z,12.40
2019-04-03T10:02:56.000Z,12.40
2019-04-03T10:05:28.957Z,12.50
2019-04-03T10:08:01.871Z,11.90
2019-04-03T10:10:33.686Z,11.80
2019-04-03T10:13:05.874Z,11.80
2019-04-03T10:15:37.733Z,12.00
2019-04-03T10:18:10.116Z,11.70
2019-04-03T10:20:42.121Z,11.50
2019-04-03T10:23:14.167Z,11.40
2019-04-03T10:25:45.916Z,11.50
2019-04-03T10:28:18.196Z,11.70
2019-04-03T10:30:51.973Z,11.50
2019-04-03T10:33:23.890Z,11.80
2019-04-03T10:35:55.778Z,11.60
2019-04-03T10:38:27.898Z,11.30
2019-04-03T10:40:59.881Z,11.60
2019-04-03T10:43:32.444Z,12.00
2019-04-03T10:46:04.233Z,12.10
2019-04-03T10:48:36.119Z,12.10
2019-04-03T10:51:09.408Z,12.00
2019-04-03T10:53:41.994Z,12.10
2019-04-03T10:56:13.894Z,11.80
2019-04-03T10:58:46.348Z,11.70
2019-04-03T11:01:18.154Z,11.60
2019-04-03T11:03:50.216Z,11.20
2019-04-03T11:06:23.352Z,11.00
2019-04-03T11:08:55.976Z,10.70
2019-04-03T11:11:29.644Z,11.00
2019-04-03T11:14:03.025Z,11.10
2019-04-03T11:16:36.214Z,11.30
2019-04-03T11:19:09.037Z,11.10
2019-04-03T11:21:43.259Z,11.20
2019-04-03T11:24:14.695Z,11.50
2019-04-03T11:26:46.656Z,11.30
2019-04-03T11:29:18.893Z,11.20
2019-04-03T11:31:51.397Z,10.90
2019-04-03T11:34:23.546Z,10.60
2019-04-03T11:36:55.418Z,10.20
2019-04-03T11:39:27.702Z,10.80
2019-04-03T11:41:59.859Z,10.80
2019-04-03T11:44:32.786Z,10.80
2019-04-03T11:47:04.947Z,10.40
2019-04-03T11:49:37.043Z,11.10
2019-04-03T11:52:08.938Z,10.90
2019-04-03T11:54:40.903Z,10.90
2019-04-03T11:57:15.557Z,10.90
2019-04-03T11:59:47.835Z,10.80
2019-04-03T12:02:21.002Z,10.70
2019-04-03T12:04:54.486Z,10.90
2019-04-03T12:07:26.408Z,11.20
2019-04-03T12:09:58.410Z,10.50
2019-04-03T12:12:30.590Z,10.60
2019-04-03T12:15:02.642Z,10.30
2019-04-03T12:17:34.923Z,10.50
2019-04-03T12:20:09.258Z,10.40
2019-04-03T12:22:41.275Z,10.50
2019-04-03T12:25:13.300Z,10.50
2019-04-03T12:27:46.410Z,10.70
2019-04-03T12:30:20.720Z,10.70
2019-04-03T12:32:52.558Z,10.70
2019-04-03T12:35:24.361Z,10.70
2019-04-03T12:37:56.225Z,10.60
2019-04-03T12:40:30.286Z,11.10
2019-04-03T12:43:02.150Z,10.20
2019-04-03T12:45:34.770Z,10.70
2019-04-03T12:48:06.823Z,10.50
2019-04-03T12:50:39.241Z,10.80
2019-04-03T12:53:11.776Z,10.40
2019-04-03T12:55:44.469Z,10.30
2019-04-03T12:58:16.696Z,9.80
2019-04-03T13:00:49.118Z,10.20
2019-04-03T13:03:23.607Z,10.70
2019-04-03T13:05:55.027Z,10.30
2019-04-03T13:08:27.235Z,10.30
2019-04-03T13:10:59.472Z,9.60
2019-04-03T13:13:31.465Z,9.00
2019-04-03T13:16:03.950Z,9.40
2019-04-03T13:18:36.207Z,9.20
2019-04-03T13:21:09.263Z,9.20
2019-04-03T13:23:45.154Z,9.60
2019-04-03T13:26:14.895Z,9.30
2019-04-03T13:28:46.800Z,8.80
2019-04-03T13:31:18.757Z,8.50
2019-04-03T13:33:51.094Z,8.20
2019-04-03T13:36:24.494Z,8.10
2019-04-03T13:39:00.316Z,8.50
2019-04-03T13:41:33.313Z,8.60
2019-04-03T13:44:04.388Z,8.50
2019-04-03T13:46:37.752Z,8.40
2019-04-03T13:49:09.524Z,8.30
2019-04-03T13:51:41.751Z,8.10
2019-04-03T13:54:15.244Z,8.20
2019-04-03T13:56:47.855Z,8.30
2019-04-03T13:59:19.794Z,8.00
2019-04-03T14:01:52.052Z,8.20
2019-04-03T14:04:24.081Z,8.00
2019-04-03T14:06:56.218Z,7.80
2019-04-03T14:09:28.274Z,8.00
2019-04-03T14:12:00.986Z,8.20
2019-04-03T14:14:33.851Z,8.30
2019-04-03T14:17:06.622Z,8.30
2019-04-03T14:19:44.371Z,8.60
2019-04-03T14:22:12.725Z,8.80
2019-04-03T14:24:49.512Z,8.90
2019-04-03T14:27:23.828Z,9.10
2019-04-03T14:29:51.406Z,8.90
2019-04-03T14:32:23.905Z,9.00
2019-04-03T14:35:04.882Z,8.90
2019-04-03T14:37:29.821Z,8.70
2019-04-03T14:40:01.650Z,8.50
2019-04-03T14:42:34.097Z,8.40
2019-04-03T14:45:06.880Z,8.10
2019-04-03T14:47:39.619Z,8.20
2019-04-03T14:50:12.732Z,7.90
2019-04-03T14:52:47.695Z,7.80
2019-04-03T14:55:21.293Z,7.70
2019-04-03T14:57:53.785Z,8.00
2019-04-03T15:00:29.502Z,8.30
2019-04-03T15:02:59.352Z,7.90
2019-04-03T15:05:31.933Z,8.00
2019-04-03T15:08:05.554Z,8.20
2019-04-03T15:10:37.591Z,7.90
2019-04-03T15:13:12.654Z,8.00
2019-04-03T15:15:45.781Z,8.00
2019-04-03T15:18:18.641Z,8.00
2019-04-03T15:20:51.931Z,7.80
2019-04-03T15:23:24.513Z,8.00
2019-04-03T15:25:56.745Z,8.00
2019-04-03T15:28:30.585Z,8.10
2019-04-03T15:31:02.546Z,8.30
2019-04-03T15:33:34.672Z,8.10
2019-04-03T15:36:06.768Z,8.40
2019-04-03T15:38:38.925Z,8.40
2019-04-03T15:41:11.422Z,8.50
2019-04-03T15:43:45.604Z,8.30
2019-04-03T15:46:17.037Z,8.30
2019-04-03T15:48:52.524Z,8.50
2019-04-03T15:51:23.120Z,8.50
2019-04-03T15:53:56.810Z,9.10
2019-04-03T15:56:29.049Z,8.80
2019-04-03T15:59:01.133Z,9.10
2019-04-03T16:01:33.241Z,9.20
2019-04-03T16:04:05.998Z,9.10
2019-04-03T16:06:38.024Z,8.90
2019-04-03T16:09:11.321Z,8.90
2019-04-03T16:11:43.231Z,9.00
2019-04-03T16:14:16.697Z,9.60
2019-04-03T16:16:49.177Z,9.50
2019-04-03T16:19:21.385Z,9.40
2019-04-03T16:21:55.677Z,9.50
2019-04-03T16:24:27.133Z,9.80
2019-04-03T16:26:58.908Z,10.00
2019-04-03T16:29:31.361Z,10.20
2019-04-03T16:32:03.550Z,10.20
2019-04-03T16:34:35.839Z,10.30
2019-04-03T16:37:08.176Z,10.40
2019-04-03T16:39:40.305Z,10.40
2019-04-03T16:42:12.448Z,10.30
2019-04-03T16:44:44.425Z,10.10
2019-04-03T16:47:16.805Z,10.00
2019-04-03T16:49:54.262Z,10.00
2019-04-03T16:52:23.805Z,10.20
2019-04-03T16:54:55.840Z,10.20
2019-04-03T16:57:27.909Z,9.60
2019-04-03T17:00:00.343Z,10.10
2019-04-03T17:02:32.574Z,10.10
2019-04-03T17:05:05.274Z,9.90
2019-04-03T17:07:38.347Z,9.90
2019-04-03T17:10:10.892Z,9.80
2019-04-03T17:12:45.435Z,9.80
2019-04-03T17:15:19.181Z,10.30
2019-04-03T17:17:51.419Z,10.10
2019-04-03T17:20:24.746Z,10.00
2019-04-03T17:22:57.152Z,10.20
2019-04-03T17:25:38.217Z,10.40
2019-04-03T17:28:07.506Z,10.00
2019-04-03T17:30:37.207Z,10.50
2019-04-03T17:33:09.444Z,10.10
2019-04-03T17:35:42.712Z,10.10
2019-04-03T17:38:16.298Z,10.10
2019-04-03T17:40:48.765Z,10.10
2019-04-03T17:43:21.151Z,10.10
2019-04-03T17:45:54.102Z,9.90
2019-04-03T17:48:26.515Z,10.00
2019-04-03T17:51:02.367Z,10.30
2019-04-03T17:53:36.385Z,10.40
2019-04-03T17:56:12.272Z,10.40
2019-04-03T17:58:43.758Z,10.50
2019-04-03T18:01:16.875Z,10.70
2019-04-03T18:03:49.688Z,10.70
2019-04-03T18:06:22.554Z,10.70
2019-04-03T18:08:54.495Z,10.60
2019-04-03T18:11:26.517Z,10.60
2019-04-03T18:13:58.479Z,10.60
2019-04-03T18:16:30.487Z,10.70
2019-04-03T18:19:04.548Z,10.60
2019-04-03T18:21:36.230Z,10.70
2019-04-03T18:24:08.327Z,11.10
2019-04-03T18:26:40.283Z,10.40
2019-04-03T18:29:12.218Z,10.40
2019-04-03T18:31:45.192Z,10.50
2019-04-03T18:34:19.457Z,10.80
2019-04-03T18:36:51.237Z,10.70
2019-04-03T18:39:23.148Z,10.50
2019-04-03T18:41:55.571Z,10.50
2019-04-03T18:44:30.115Z,10.40
2019-04-03T18:47:01.338Z,10.40
2019-04-03T18:49:34.580Z,10.80
2019-04-03T18:52:07.989Z,10.50
2019-04-03T18:54:42.140Z,10.80
2019-04-03T18:57:16.822Z,10.60
2019-04-03T18:59:47.993Z,10.70
2019-04-03T19:02:20.506Z,10.70
2019-04-03T19:05:01.737Z,10.60
2019-04-03T19:07:26.359Z,10.60
2019-04-03T19:10:07.033Z,10.50
2019-04-03T19:12:35.792Z,10.60
2019-04-03T19:15:08.896Z,10.40
2019-04-03T19:17:41.315Z,10.60
2019-04-03T19:20:13.600Z,10.80
2019-04-03T19:22:47.036Z,10.60
2019-04-03T19:25:19.031Z,10.70
2019-04-03T19:27:51.854Z,10.80
2019-04-03T19:30:23.994Z,10.70
2019-04-03T19:32:55.994Z,10.50
2019-04-03T19:35:28.593Z,10.50
2019-04-03T19:38:04.747Z,10.10
2019-04-03T19:40:35.069Z,10.10
2019-04-03T19:43:07.231Z,10.20
2019-04-03T19:45:39.337Z,10.10
2019-04-03T19:48:11.856Z,10.20
2019-04-03T19:50:44.600Z,10.30
2019-04-03T19:53:17.352Z,10.10
2019-04-03T19:55:49.891Z,10.30
2019-04-03T19:58:22.686Z,10.40
2019-04-03T20:00:54.873Z,11.20
2019-04-03T20:03:27.315Z,10.80
2019-04-03T20:05:59.495Z,10.80
2019-04-03T20:08:31.734Z,11.20
2019-04-03T20:11:05.150Z,11.30
2019-04-03T20:13:39.882Z,11.10
2019-04-03T20:16:12.628Z,11.00
2019-04-03T20:18:44.587Z,10.80
2019-04-03T20:21:16.441Z,10.70
2019-04-03T20:23:48.853Z,10.50
2019-04-03T20:26:20.803Z,10.70
2019-04-03T20:28:53.120Z,10.60
2019-04-03T20:31:25.038Z,10.60
2019-04-03T20:33:57.146Z,10.60
2019-04-03T20:36:29.283Z,10.70
2019-04-03T20:39:04.084Z,11.60
2019-04-03T20:41:35.928Z,11.00
2019-04-03T20:44:07.774Z,11.20
2019-04-03T20:46:39.628Z,11.20
2019-04-03T20:49:11.941Z,11.20
2019-04-03T20:51:43.915Z,11.30
2019-04-03T20:54:16.385Z,11.50
2019-04-03T20:56:57.640Z,11.50
2019-04-03T20:59:22.670Z,11.30
2019-04-03T21:01:54.557Z,11.20
2019-04-03T21:04:26.427Z,11.30
2019-04-03T21:06:58.819Z,11.40
2019-04-03T21:09:31.560Z,11.10
2019-04-03T21:12:05.080Z,11.10
2019-04-03T21:14:41.177Z,11.20
2019-04-03T21:17:11.572Z,11.00
2019-04-03T21:19:44.931Z,11.30
2019-04-03T21:22:16.761Z,11.40
2019-04-03T21:24:49.194Z,11.20
2019-04-03T21:27:21.044Z,11.10
2019-04-03T21:29:52.885Z,11.20
2019-04-03T21:32:24.677Z,11.10
2019-04-03T21:34:56.592Z,11.00
2019-04-03T21:37:28.651Z,11.30
2019-04-03T21:40:04.513Z,11.30
2019-04-03T21:42:34.504Z,11.30
2019-04-03T21:45:08.029Z,11.30
2019-04-03T21:47:40.940Z,11.20
2019-04-03T21:50:14.421Z,11.30
2019-04-03T21:52:46.243Z,11.30
2019-04-03T21:55:18.596Z,11.30
2019-04-03T21:57:50.402Z,11.50
2019-04-03T22:01:18.694Z,11.40
2019-04-03T22:03:51.661Z,11.40
2019-04-03T22:06:26.614Z,11.40
2019-04-03T22:08:59.661Z,11.30
2019-04-03T22:11:31.251Z,11.50
2019-04-03T22:14:03.099Z,11.40
2019-04-03T22:16:35.301Z,11.30
2019-04-03T22:19:07.125Z,11.50
2019-04-03T22:21:39.214Z,11.50
2019-04-03T22:24:11.164Z,11.50
2019-04-03T22:26:43.279Z,11.60
2019-04-03T22:29:15.107Z,11.60
2019-04-03T22:31:47.174Z,11.50
2019-04-03T22:34:19.030Z,11.60
2019-04-03T22:36:51.563Z,11.70
2019-04-03T22:39:23.456Z,11.90
2019-04-03T22:41:55.759Z,11.30
2019-04-03T22:44:27.816Z,11.50
2019-04-03T22:46:59.989Z,11.80
2019-04-03T22:49:33.755Z,11.70
2019-04-03T22:52:06.908Z,11.60
2019-04-03T22:54:39.140Z,11.70
2019-04-03T22:57:11.440Z,11.70
2019-04-03T22:59:43.341Z,11.80
2019-04-03T23:02:15.190Z,11.70
2019-04-03T23:04:46.987Z,11.70
2019-04-03T23:07:20.964Z,12.20
2019-04-03T23:09:52.583Z,11.80
2019-04-03T23:12:24.748Z,11.70
2019-04-03T23:14:56.532Z,11.70
2019-04-03T23:17:28.684Z,11.90
2019-04-03T23:20:00.490Z,11.70
2019-04-03T23:22:32.593Z,11.90
2019-04-03T23:25:04.704Z,11.90
2019-04-03T23:27:37.031Z,12.10
2019-04-03T23:30:10.707Z,11.90
2019-04-03T23:32:45.753Z,11.80
2019-04-03T23:35:16.469Z,11.90
2019-04-03T23:37:48.482Z,11.90
2019-04-03T23:40:20.231Z,11.90
2019-04-03T23:42:52.494Z,12.00
2019-04-03T23:45:26.450Z,12.20
2019-04-03T23:47:58.498Z,12.20
2019-04-03T23:50:30.265Z,12.30
2019-04-03T23:53:02.295Z,12.10
2019-04-03T23:55:34.333Z,12.10
2019-04-03T23:58:10.656Z,12.00
